createdAt,value
2017-04-06T03:00:50.932Z,19.63
2017-04-06T03:01:16.483Z,19.68
2017-04-06T03:01:42.043Z,19.72
2017-04-06T03:02:07.730Z,19.72
2017-04-06T03:02:33.295Z,19.63
2017-04-06T03:02:58.862Z,19.65
2017-04-06T03:03:24.408Z,19.69
2017-04-06T03:03:49.982Z,19.65
2017-04-06T03:04:15.537Z,19.63
2017-04-06T03:04:41.921Z,19.69
2017-04-06T03:05:07.363Z,19.69
2017-04-06T03:05:33.110Z,19.61
2017-04-06T03:05:58.650Z,19.73
2017-04-06T03:06:24.204Z,19.73
2017-04-06T03:06:49.751Z,19.65
2017-04-06T03:07:15.308Z,19.72
2017-04-06T03:07:40.980Z,19.78
2017-04-06T03:08:06.543Z,19.78
2017-04-06T03:08:32.121Z,19.66
2017-04-06T03:08:57.701Z,19.68
2017-04-06T03:09:23.319Z,19.78
2017-04-06T03:09:48.885Z,19.73
2017-04-06T03:10:14.449Z,19.73
2017-04-06T03:10:40.065Z,19.75
2017-04-06T03:11:05.659Z,19.73
2017-04-06T03:11:31.202Z,19.68
2017-04-06T03:11:56.752Z,19.66
2017-04-06T03:12:22.305Z,19.69
2017-04-06T03:12:47.874Z,19.61
2017-04-06T03:13:13.444Z,19.66
2017-04-06T03:13:38.987Z,19.63
2017-04-06T03:14:04.543Z,19.7
2017-04-06T03:14:30.086Z,19.7
2017-04-06T03:14:55.641Z,19.65
2017-04-06T03:15:21.227Z,19.68
2017-04-06T03:15:46.884Z,19.65
2017-04-06T03:16:12.468Z,19.68
2017-04-06T03:16:38.024Z,19.75
2017-04-06T03:17:03.603Z,19.73
2017-04-06T03:17:29.169Z,19.72
2017-04-06T03:17:54.728Z,19.68
2017-04-06T03:18:20.369Z,19.73
2017-04-06T03:18:45.992Z,19.61
2017-04-06T03:19:11.563Z,19.73
2017-04-06T03:19:37.232Z,19.68
2017-04-06T03:20:02.802Z,19.7
2017-04-06T03:20:28.371Z,19.7
2017-04-06T03:20:53.933Z,19.65
2017-04-06T03:21:19.504Z,19.61
2017-04-06T03:21:45.059Z,19.66
2017-04-06T03:22:10.613Z,19.75
2017-04-06T03:22:36.164Z,19.63
2017-04-06T03:23:01.748Z,19.73
2017-04-06T03:23:27.302Z,19.72
2017-04-06T03:23:52.852Z,19.69
2017-04-06T03:24:18.396Z,19.65
2017-04-06T03:24:43.925Z,19.78
2017-04-06T03:25:13.107Z,19.75
2017-04-06T03:25:38.657Z,19.69
2017-04-06T03:26:04.198Z,19.69
2017-04-06T03:26:29.739Z,19.68
2017-04-06T03:26:55.293Z,19.65
2017-04-06T03:27:20.832Z,19.76
2017-04-06T03:27:46.387Z,19.75
2017-04-06T03:28:11.925Z,19.7
2017-04-06T03:28:37.515Z,19.65
2017-04-06T03:29:03.092Z,19.69
2017-04-06T03:29:28.762Z,19.68
2017-04-06T03:29:54.320Z,19.65
2017-04-06T03:30:19.886Z,19.73
2017-04-06T03:30:45.453Z,19.68
2017-04-06T03:31:11.160Z,19.66
2017-04-06T03:31:36.720Z,19.76
2017-04-06T03:32:02.359Z,19.66
2017-04-06T03:32:27.909Z,19.75
2017-04-06T03:32:53.527Z,19.72
2017-04-06T03:33:19.062Z,19.66
2017-04-06T03:33:44.615Z,19.61
2017-04-06T03:34:10.179Z,19.72
2017-04-06T03:34:35.745Z,19.55
2017-04-06T03:35:01.299Z,19.68
2017-04-06T03:35:41.720Z,19.69
2017-04-06T03:36:07.292Z,19.69
2017-04-06T03:36:32.919Z,19.66
2017-04-06T03:36:58.607Z,19.7
2017-04-06T03:37:24.170Z,19.66
2017-04-06T03:37:49.740Z,19.68
2017-04-06T03:38:15.307Z,19.68
2017-04-06T03:38:40.858Z,19.69
2017-04-06T03:39:06.394Z,19.66
2017-04-06T03:39:31.939Z,19.66
2017-04-06T03:39:57.510Z,19.68
2017-04-06T03:40:23.072Z,19.68
2017-04-06T03:40:48.621Z,19.72
2017-04-06T03:41:14.272Z,19.66
2017-04-06T03:41:39.829Z,19.65
2017-04-06T03:42:05.544Z,19.68
2017-04-06T03:42:31.117Z,19.66
2017-04-06T03:42:56.702Z,19.69
2017-04-06T03:43:22.389Z,19.68
2017-04-06T03:43:47.930Z,19.57
2017-04-06T03:44:13.482Z,19.66
2017-04-06T03:44:39.043Z,19.7
2017-04-06T03:45:04.610Z,19.58
2017-04-06T03:45:30.166Z,19.73
2017-04-06T03:45:55.729Z,19.68
2017-04-06T03:46:21.300Z,19.66
2017-04-06T03:46:46.883Z,19.63
2017-04-06T03:47:12.465Z,19.68
2017-04-06T03:47:38.071Z,19.69
2017-04-06T03:48:03.637Z,19.7
2017-04-06T03:48:29.340Z,19.69
2017-04-06T03:48:54.916Z,19.66
2017-04-06T03:49:20.481Z,19.53
2017-04-06T03:49:46.179Z,19.66
2017-04-06T03:50:11.748Z,19.69
2017-04-06T03:50:37.321Z,19.7
2017-04-06T03:51:02.875Z,19.63
2017-04-06T03:51:28.450Z,19.68
2017-04-06T03:51:54.021Z,19.68
2017-04-06T03:52:19.577Z,19.69
2017-04-06T03:52:45.156Z,19.72
2017-04-06T03:53:10.733Z,19.58
2017-04-06T03:53:36.351Z,19.68
2017-04-06T03:54:01.910Z,19.6
2017-04-06T03:54:27.492Z,19.65
2017-04-06T03:54:53.146Z,19.66
2017-04-06T03:55:18.712Z,19.69
2017-04-06T03:55:44.280Z,19.65
2017-04-06T03:56:09.829Z,19.63
2017-04-06T03:56:35.515Z,19.66
2017-04-06T03:57:01.090Z,19.61
2017-04-06T03:57:26.642Z,19.68
2017-04-06T03:57:52.299Z,19.65
2017-04-06T03:58:17.847Z,19.68
2017-04-06T03:58:43.395Z,19.69
2017-04-06T03:59:08.932Z,19.66
2017-04-06T03:59:34.488Z,19.65
2017-04-06T04:00:00.027Z,19.69
2017-04-06T04:00:25.613Z,19.65
2017-04-06T04:00:51.166Z,19.63
2017-04-06T04:01:16.791Z,19.63
2017-04-06T04:01:42.355Z,19.7
2017-04-06T04:02:07.920Z,19.61
2017-04-06T04:02:33.492Z,19.66
2017-04-06T04:02:59.069Z,19.66
2017-04-06T04:03:24.770Z,19.66
2017-04-06T04:03:50.332Z,19.66
2017-04-06T04:04:15.891Z,19.72
2017-04-06T04:04:41.474Z,19.63
2017-04-06T04:05:07.038Z,19.65
2017-04-06T04:05:32.591Z,19.57
2017-04-06T04:05:58.169Z,19.63
2017-04-06T04:06:23.745Z,19.65
2017-04-06T04:06:49.282Z,19.69
2017-04-06T04:07:14.910Z,19.69
2017-04-06T04:07:40.466Z,19.6
2017-04-06T04:08:06.028Z,19.7
2017-04-06T04:08:31.567Z,19.66
2017-04-06T04:08:57.222Z,19.68
2017-04-06T04:09:22.773Z,19.66
2017-04-06T04:09:48.319Z,19.61
2017-04-06T04:10:13.866Z,19.6
2017-04-06T04:10:39.418Z,19.65
2017-04-06T04:11:04.981Z,19.7
2017-04-06T04:11:30.539Z,19.65
2017-04-06T04:12:10.837Z,19.58
2017-04-06T04:12:47.947Z,19.66
2017-04-06T04:14:29.201Z,19.66
2017-04-06T04:14:54.757Z,19.63
2017-04-06T04:15:20.322Z,19.65
2017-04-06T04:15:45.883Z,19.63
2017-04-06T04:16:11.440Z,19.54
2017-04-06T04:16:37.001Z,19.65
2017-04-06T04:17:02.571Z,19.65
2017-04-06T04:17:28.123Z,19.61
2017-04-06T04:17:53.682Z,19.6
2017-04-06T04:18:19.238Z,19.61
2017-04-06T04:18:44.797Z,19.65
2017-04-06T04:19:10.396Z,19.61
2017-04-06T04:19:35.946Z,19.55
2017-04-06T04:20:01.524Z,19.61
2017-04-06T04:20:27.111Z,19.63
2017-04-06T04:21:15.502Z,19.63
2017-04-06T04:21:41.072Z,19.63
2017-04-06T04:22:06.628Z,19.61
2017-04-06T04:22:32.193Z,19.68
2017-04-06T04:22:57.752Z,19.63
2017-04-06T04:23:23.298Z,19.63
2017-04-06T04:23:48.855Z,19.65
2017-04-06T04:24:14.422Z,19.61
2017-04-06T04:24:40.001Z,19.61
2017-04-06T04:25:05.562Z,19.6
2017-04-06T04:25:33.069Z,19.58
2017-04-06T04:26:06.667Z,19.7
2017-04-06T04:30:31.754Z,19.6
2017-04-06T04:30:58.004Z,19.57
2017-04-06T04:31:27.742Z,19.66
2017-04-06T04:31:53.356Z,19.6
2017-04-06T04:32:18.925Z,19.6
2017-04-06T04:32:44.484Z,19.6
2017-04-06T04:33:10.064Z,19.65
2017-04-06T04:34:24.672Z,19.6
2017-04-06T04:35:38.284Z,19.6
2017-04-06T04:36:03.850Z,19.6
2017-04-06T04:36:29.443Z,19.6
2017-04-06T04:36:54.992Z,19.66
2017-04-06T04:37:20.546Z,19.55
2017-04-06T04:37:46.175Z,19.6
2017-04-06T04:38:11.733Z,19.65
2017-04-06T04:38:37.286Z,19.55
2017-04-06T04:39:02.829Z,19.6
2017-04-06T04:39:28.380Z,19.57
2017-04-06T04:39:53.929Z,19.55
2017-04-06T04:40:19.547Z,19.53
2017-04-06T04:40:45.097Z,19.66
2017-04-06T04:41:10.681Z,19.6
2017-04-06T04:41:36.218Z,19.6
2017-04-06T04:42:01.786Z,19.66
2017-04-06T04:42:27.336Z,19.68
2017-04-06T04:42:52.932Z,19.61
2017-04-06T04:43:18.492Z,19.66
2017-04-06T04:43:44.050Z,19.63
2017-04-06T04:44:09.640Z,19.65
2017-04-06T04:44:35.194Z,19.66
2017-04-06T04:45:00.762Z,19.61
2017-04-06T04:45:26.316Z,19.63
2017-04-06T04:45:51.934Z,19.53
2017-04-06T04:46:17.545Z,19.65
2017-04-06T04:46:43.106Z,19.6
2017-04-06T04:47:08.654Z,19.65
2017-04-06T04:47:34.332Z,19.6
2017-04-06T04:47:59.892Z,19.6
2017-04-06T04:48:25.450Z,19.53
2017-04-06T04:48:51.038Z,19.65
2017-04-06T04:49:16.628Z,19.58
2017-04-06T04:49:42.185Z,19.61
2017-04-06T04:50:07.746Z,19.55
2017-04-06T04:50:33.321Z,19.6
2017-04-06T04:50:58.924Z,19.61
2017-04-06T04:51:24.479Z,19.58
2017-04-06T04:51:50.030Z,19.66
2017-04-06T04:52:15.592Z,19.58
2017-04-06T04:52:41.161Z,19.57
2017-04-06T04:53:06.725Z,19.51
2017-04-06T04:53:32.330Z,19.58
2017-04-06T04:53:57.967Z,19.53
2017-04-06T04:54:23.534Z,19.57
2017-04-06T04:54:49.083Z,19.54
2017-04-06T04:55:14.639Z,19.55
2017-04-06T04:55:40.195Z,19.53
2017-04-06T04:56:05.884Z,19.57
2017-04-06T04:56:31.490Z,19.5
2017-04-06T04:56:57.053Z,19.58
2017-04-06T04:57:22.612Z,19.58
2017-04-06T04:57:48.169Z,19.54
2017-04-06T04:58:13.738Z,19.53
2017-04-06T04:58:39.319Z,19.54
2017-04-06T04:59:04.889Z,19.53
2017-04-06T04:59:30.460Z,19.51
2017-04-06T04:59:56.023Z,19.58
2017-04-06T05:00:21.629Z,19.53
2017-04-06T05:00:47.201Z,19.53
2017-04-06T05:01:12.771Z,19.48
2017-04-06T05:01:38.330Z,19.47
2017-04-06T05:02:03.920Z,19.51
2017-04-06T05:02:29.474Z,19.54
2017-04-06T05:02:55.050Z,19.58
2017-04-06T05:03:20.609Z,19.54
2017-04-06T05:03:46.162Z,19.54
2017-04-06T05:04:11.729Z,19.51
2017-04-06T05:04:37.344Z,19.48
2017-04-06T05:05:03.004Z,19.55
2017-04-06T05:05:28.563Z,19.55
2017-04-06T05:05:54.132Z,19.53
2017-04-06T05:06:19.711Z,19.55
2017-04-06T05:06:45.285Z,19.54
2017-04-06T05:07:10.922Z,19.53
2017-04-06T05:07:36.481Z,19.48
2017-04-06T05:08:02.052Z,19.51
2017-04-06T05:08:27.624Z,19.51
2017-04-06T05:08:53.200Z,19.53
2017-04-06T05:09:18.762Z,19.53
2017-04-06T05:09:44.323Z,19.51
2017-04-06T05:10:09.891Z,19.53
2017-04-06T05:10:35.501Z,19.51
2017-04-06T05:11:01.057Z,19.5
2017-04-06T05:11:26.614Z,19.5
2017-04-06T05:11:52.191Z,19.5
2017-04-06T05:12:17.755Z,19.53
2017-04-06T05:12:43.311Z,19.48
2017-04-06T05:13:08.956Z,19.5
2017-04-06T05:13:34.516Z,19.5
2017-04-06T05:14:00.088Z,19.51
2017-04-06T05:14:25.643Z,19.51
2017-04-06T05:14:51.207Z,19.46
2017-04-06T05:15:16.844Z,19.48
2017-04-06T05:15:42.403Z,19.51
2017-04-06T05:16:07.993Z,19.54
2017-04-06T05:16:33.566Z,19.48
2017-04-06T05:16:59.140Z,19.53
2017-04-06T05:17:24.699Z,19.48
2017-04-06T05:17:50.400Z,19.47
2017-04-06T05:18:16.058Z,19.46
2017-04-06T05:18:41.700Z,19.48
2017-04-06T05:19:07.270Z,19.51
2017-04-06T05:19:32.861Z,19.46
2017-04-06T05:19:58.418Z,19.5
2017-04-06T05:20:23.982Z,19.5
2017-04-06T05:21:32.617Z,19.48
2017-04-06T05:21:58.182Z,19.54
2017-04-06T05:22:23.753Z,19.46
2017-04-06T05:22:49.310Z,19.54
2017-04-06T05:23:14.871Z,19.5
2017-04-06T05:23:40.435Z,19.47
2017-04-06T05:24:05.989Z,19.5
2017-04-06T05:24:31.570Z,19.48
2017-04-06T05:24:57.165Z,19.5
2017-04-06T05:25:22.734Z,19.51
2017-04-06T05:25:48.292Z,19.47
2017-04-06T05:26:13.852Z,19.46
2017-04-06T05:26:39.441Z,19.48
2017-04-06T05:27:05.105Z,19.46
2017-04-06T05:27:30.673Z,19.51
2017-04-06T05:27:56.239Z,19.48
2017-04-06T05:28:21.795Z,19.5
2017-04-06T05:28:47.352Z,19.46
2017-04-06T05:29:12.915Z,19.51
2017-04-06T05:29:38.483Z,19.4
2017-04-06T05:30:04.046Z,19.46
2017-04-06T05:30:29.608Z,19.46
2017-04-06T05:30:55.181Z,19.43
2017-04-06T05:31:20.742Z,19.5
2017-04-06T05:31:46.302Z,19.42
2017-04-06T05:32:11.885Z,19.51
2017-04-06T05:32:37.608Z,19.48
2017-04-06T05:33:03.212Z,19.33
2017-04-06T05:33:28.766Z,19.42
2017-04-06T05:33:54.319Z,19.47
2017-04-06T05:34:19.953Z,19.46
2017-04-06T05:34:45.497Z,19.43
2017-04-06T05:35:11.114Z,19.46
2017-04-06T05:35:36.683Z,19.51
2017-04-06T05:36:02.233Z,19.5
2017-04-06T05:36:27.779Z,19.48
2017-04-06T05:36:53.319Z,19.43
2017-04-06T05:37:18.883Z,19.38
2017-04-06T05:37:44.449Z,19.47
2017-04-06T05:38:10.100Z,19.46
2017-04-06T05:38:35.638Z,19.48
2017-04-06T05:39:01.327Z,19.48
2017-04-06T05:39:26.969Z,19.42
2017-04-06T05:39:52.540Z,19.47
2017-04-06T05:40:18.319Z,19.5
2017-04-06T05:40:43.882Z,19.42
2017-04-06T05:41:09.431Z,19.4
2017-04-06T05:41:35.060Z,19.51
2017-04-06T05:42:00.644Z,19.47
2017-04-06T05:42:26.202Z,19.43
2017-04-06T05:42:51.746Z,19.42
2017-04-06T05:43:17.330Z,19.42
2017-04-06T05:43:42.886Z,19.39
2017-04-06T05:44:08.494Z,19.43
2017-04-06T05:44:34.050Z,19.53
2017-04-06T05:44:59.608Z,19.47
2017-04-06T05:45:25.226Z,19.46
2017-04-06T05:45:50.799Z,19.43
2017-04-06T05:46:16.370Z,19.46
2017-04-06T05:46:41.943Z,19.43
2017-04-06T05:47:07.609Z,19.35
2017-04-06T05:47:33.433Z,19.42
2017-04-06T05:47:59.030Z,19.42
2017-04-06T05:48:24.613Z,19.42
2017-04-06T05:48:50.319Z,19.46
2017-04-06T05:49:48.753Z,19.4
2017-04-06T05:50:14.320Z,19.43
2017-04-06T05:50:39.901Z,19.53
2017-04-06T05:51:05.530Z,19.43
2017-04-06T05:51:31.180Z,19.48
2017-04-06T05:51:56.734Z,19.33
2017-04-06T05:52:22.300Z,19.46
2017-04-06T05:52:47.884Z,19.46
2017-04-06T05:53:13.451Z,19.46
2017-04-06T05:53:39.117Z,19.46
2017-04-06T05:54:04.701Z,19.46
2017-04-06T05:54:30.280Z,19.32
2017-04-06T05:54:55.885Z,19.46
2017-04-06T05:55:21.458Z,19.43
2017-04-06T05:55:47.023Z,19.38
2017-04-06T05:56:12.566Z,19.47
2017-04-06T05:56:38.125Z,19.42
2017-04-06T05:57:03.663Z,19.38
2017-04-06T05:57:29.270Z,19.42
2017-04-06T05:57:54.953Z,19.35
2017-04-06T05:58:20.521Z,19.38
2017-04-06T05:58:46.102Z,19.38
2017-04-06T05:59:11.719Z,19.43
2017-04-06T05:59:37.335Z,19.36
2017-04-06T06:00:02.831Z,19.4
2017-04-06T06:00:28.415Z,19.32
2017-04-06T06:01:26.913Z,19.36
2017-04-06T06:01:52.484Z,19.42
2017-04-06T06:02:18.118Z,19.36
2017-04-06T06:02:43.710Z,19.4
2017-04-06T06:03:09.353Z,19.38
2017-04-06T06:03:34.934Z,19.43
2017-04-06T06:04:00.661Z,19.39
2017-04-06T06:04:26.275Z,19.43
2017-04-06T06:04:51.816Z,19.33
2017-04-06T06:06:00.329Z,19.35
2017-04-06T06:06:25.899Z,19.35
2017-04-06T06:06:51.623Z,19.35
2017-04-06T06:07:17.253Z,19.32
2017-04-06T06:07:42.788Z,19.39
2017-04-06T06:08:08.506Z,19.39
2017-04-06T06:08:34.062Z,19.36
2017-04-06T06:08:59.664Z,19.33
2017-04-06T06:09:25.229Z,19.31
2017-04-06T06:09:50.826Z,19.33
2017-04-06T06:10:16.472Z,19.36
2017-04-06T06:10:42.028Z,19.32
2017-04-06T06:11:07.725Z,19.31
2017-04-06T06:11:33.409Z,19.39
2017-04-06T06:11:59.022Z,19.39
2017-04-06T06:12:24.696Z,19.36
2017-04-06T06:12:50.257Z,19.32
2017-04-06T06:13:15.879Z,19.33
2017-04-06T06:13:41.531Z,19.43
2017-04-06T06:14:07.078Z,19.32
2017-04-06T06:14:32.703Z,19.36
2017-04-06T06:14:58.299Z,19.33
2017-04-06T06:15:23.876Z,19.32
2017-04-06T06:15:49.482Z,19.42
2017-04-06T06:16:15.069Z,19.32
2017-04-06T06:16:40.678Z,19.35
2017-04-06T06:17:06.283Z,19.38
2017-04-06T06:17:31.912Z,19.31
2017-04-06T06:17:57.685Z,19.4
2017-04-06T06:18:23.220Z,19.32
2017-04-06T06:18:48.836Z,19.29
2017-04-06T06:19:14.489Z,19.25
2017-04-06T06:19:40.081Z,19.25
2017-04-06T06:20:05.690Z,19.23
2017-04-06T06:20:31.274Z,19.29
2017-04-06T06:20:56.823Z,19.23
2017-04-06T06:21:22.465Z,19.29
2017-04-06T06:21:48.157Z,19.36
2017-04-06T06:22:13.781Z,19.31
2017-04-06T06:23:02.241Z,19.28
2017-04-06T06:23:28.832Z,19.24
2017-04-06T06:23:54.532Z,19.35
2017-04-06T06:24:20.012Z,19.24
2017-04-06T06:24:45.639Z,19.24
2017-04-06T06:25:11.192Z,19.23
2017-04-06T06:25:36.831Z,19.31
2017-04-06T06:26:02.382Z,19.32
2017-04-06T06:26:28.029Z,19.31
2017-04-06T06:26:53.644Z,19.28
2017-04-06T06:27:19.208Z,19.25
2017-04-06T06:27:44.863Z,19.24
2017-04-06T06:28:10.420Z,19.29
2017-04-06T06:28:36.074Z,19.33
2017-04-06T06:29:01.694Z,19.23
2017-04-06T06:29:27.340Z,19.29
2017-04-06T06:29:52.984Z,19.31
2017-04-06T06:30:18.666Z,19.31
2017-04-06T06:30:44.233Z,19.28
2017-04-06T06:31:09.919Z,19.25
2017-04-06T06:31:35.699Z,19.24
2017-04-06T06:32:01.262Z,19.24
2017-04-06T06:32:26.944Z,19.29
2017-04-06T06:32:52.482Z,19.29
2017-04-06T06:33:18.171Z,19.25
2017-04-06T06:33:43.762Z,19.29
2017-04-06T06:34:31.975Z,19.25
2017-04-06T06:34:57.542Z,19.25
2017-04-06T06:35:23.303Z,19.25
2017-04-06T06:36:32.021Z,19.2
2017-04-06T06:36:57.577Z,19.29
2017-04-06T06:37:23.256Z,19.32
2017-04-06T06:37:48.878Z,19.24
2017-04-06T06:38:14.438Z,19.24
2017-04-06T06:38:40.091Z,19.25
2017-04-06T06:39:05.682Z,19.28
2017-04-06T06:39:31.346Z,19.31
2017-04-06T06:39:57.036Z,19.21
2017-04-06T06:40:22.601Z,19.24
2017-04-06T06:40:48.366Z,19.24
2017-04-06T06:41:14.032Z,19.24
2017-04-06T06:41:39.733Z,19.28
2017-04-06T06:42:05.322Z,19.21
2017-04-06T06:42:30.990Z,19.21
2017-04-06T06:42:56.541Z,19.28
2017-04-06T06:43:22.238Z,19.28
2017-04-06T06:43:47.851Z,19.28
2017-04-06T06:44:41.502Z,19.29
2017-04-06T06:45:39.622Z,19.24
2017-04-06T06:46:05.209Z,19.29
2017-04-06T06:46:30.756Z,19.24
2017-04-06T06:46:56.363Z,19.28
2017-04-06T06:47:22.180Z,19.21
2017-04-06T06:47:47.964Z,19.2
2017-04-06T06:48:13.533Z,19.2
2017-04-06T06:48:39.178Z,19.18
2017-04-06T06:49:04.737Z,19.2
2017-04-06T06:49:30.322Z,19.25
2017-04-06T06:49:55.954Z,19.25
2017-04-06T06:50:21.549Z,19.2
2017-04-06T06:50:47.156Z,19.17
2017-04-06T06:51:12.722Z,19.24
2017-04-06T06:51:38.326Z,19.24
2017-04-06T06:52:03.938Z,19.2
2017-04-06T06:52:29.483Z,19.25
2017-04-06T06:52:55.073Z,19.25
2017-04-06T06:53:20.670Z,19.25
2017-04-06T06:53:46.330Z,19.23
2017-04-06T06:54:11.899Z,19.28
2017-04-06T06:54:37.570Z,19.2
2017-04-06T06:55:03.244Z,19.18
2017-04-06T06:55:28.963Z,19.21
2017-04-06T06:55:54.592Z,19.24
2017-04-06T06:56:20.241Z,19.2
2017-04-06T06:56:46.148Z,19.15
2017-04-06T06:57:11.715Z,19.2
2017-04-06T06:57:37.356Z,19.18
2017-04-06T06:58:02.948Z,19.21
2017-04-06T06:58:28.578Z,19.13
2017-04-06T06:58:54.244Z,19.14
2017-04-06T06:59:19.806Z,19.17
2017-04-06T06:59:45.471Z,19.25
2017-04-06T07:00:11.021Z,19.24
2017-04-06T07:00:36.610Z,19.15
2017-04-06T07:01:02.186Z,19.14
2017-04-06T07:01:27.835Z,19.2
2017-04-06T07:01:53.477Z,19.18
2017-04-06T07:02:19.060Z,19.15
2017-04-06T07:02:44.849Z,19.14
2017-04-06T07:03:11.028Z,19.17
2017-04-06T07:03:36.329Z,19.13
2017-04-06T07:04:01.953Z,19.18
2017-04-06T07:04:27.596Z,19.21
2017-04-06T07:04:53.278Z,19.21
2017-04-06T07:05:18.836Z,19.17
2017-04-06T07:05:44.501Z,19.18
2017-04-06T07:06:10.071Z,19.17
2017-04-06T07:07:13.776Z,19.21
2017-04-06T07:08:16.960Z,19.18
2017-04-06T07:08:42.574Z,19.23
2017-04-06T07:09:08.135Z,19.2
2017-04-06T07:09:33.770Z,19.24
2017-04-06T07:09:59.446Z,19.23
2017-04-06T07:10:25.003Z,19.17
2017-04-06T07:10:50.659Z,19.29
2017-04-06T07:11:16.232Z,19.24
2017-04-06T07:11:41.829Z,19.18
2017-04-06T07:12:07.509Z,19.25
2017-04-06T07:12:33.059Z,19.21
2017-04-06T07:12:58.670Z,19.25
2017-04-06T07:13:24.218Z,19.18
2017-04-06T07:13:49.818Z,19.2
2017-04-06T07:14:15.494Z,19.25
2017-04-06T07:14:41.067Z,19.31
2017-04-06T07:15:06.693Z,19.25
2017-04-06T07:15:32.240Z,19.2
2017-04-06T07:17:03.099Z,19.21
2017-04-06T07:17:28.741Z,19.31
2017-04-06T07:17:54.316Z,19.25
2017-04-06T07:18:19.908Z,19.25
2017-04-06T07:18:45.569Z,19.23
2017-04-06T07:19:11.216Z,19.24
2017-04-06T07:19:36.806Z,19.24
2017-04-06T07:20:02.342Z,19.29
2017-04-06T07:20:27.965Z,19.24
2017-04-06T07:20:53.607Z,19.24
2017-04-06T07:21:19.157Z,19.29
2017-04-06T07:21:44.758Z,19.25
2017-04-06T07:22:10.310Z,19.24
2017-04-06T07:22:35.984Z,19.28
2017-04-06T07:23:01.596Z,19.23
2017-04-06T07:23:27.146Z,19.32
2017-04-06T07:23:52.870Z,19.21
2017-04-06T07:24:18.441Z,19.23
2017-04-06T07:24:43.988Z,19.29
2017-04-06T07:25:09.564Z,19.24
2017-04-06T07:25:35.118Z,19.24
2017-04-06T07:26:00.788Z,19.29
2017-04-06T07:26:26.350Z,19.24
2017-04-06T07:26:51.932Z,19.28
2017-04-06T07:27:17.603Z,19.21
2017-04-06T07:27:43.183Z,19.29
2017-04-06T07:28:08.768Z,19.29
2017-04-06T07:28:34.349Z,19.25
2017-04-06T07:28:59.985Z,19.25
2017-04-06T07:29:25.620Z,19.25
2017-04-06T07:29:51.163Z,19.2
2017-04-06T07:30:16.745Z,19.24
2017-04-06T07:30:42.325Z,19.24
2017-04-06T07:31:07.974Z,19.29
2017-04-06T07:31:33.645Z,19.23
2017-04-06T07:31:59.225Z,19.25
2017-04-06T07:32:24.941Z,19.25
2017-04-06T07:32:50.555Z,19.21
2017-04-06T07:33:16.282Z,19.29
2017-04-06T07:33:41.881Z,19.23
2017-04-06T07:34:07.479Z,19.21
2017-04-06T07:34:33.184Z,19.2
2017-04-06T07:34:58.891Z,19.25
2017-04-06T07:35:24.450Z,19.25
2017-04-06T07:35:50.069Z,19.24
2017-04-06T07:36:15.805Z,19.24
2017-04-06T07:37:09.481Z,19.23
2017-04-06T07:37:35.181Z,19.23
2017-04-06T07:38:00.745Z,19.18
2017-04-06T07:38:26.319Z,19.23
2017-04-06T07:38:51.931Z,19.2
2017-04-06T07:39:17.488Z,19.24
2017-04-06T07:39:43.099Z,19.25
2017-04-06T07:40:08.663Z,19.24
2017-04-06T07:40:34.202Z,19.29
2017-04-06T07:40:59.841Z,19.21
2017-04-06T07:41:25.456Z,19.17
2017-04-06T07:41:51.118Z,19.28
2017-04-06T07:42:16.791Z,19.2
2017-04-06T07:42:42.265Z,19.2
2017-04-06T07:43:07.841Z,19.24
2017-04-06T07:43:33.413Z,19.17
2017-04-06T07:43:59.084Z,19.23
2017-04-06T07:44:24.633Z,19.21
2017-04-06T07:45:23.129Z,19.25
2017-04-06T07:45:48.704Z,19.23
2017-04-06T07:46:15.139Z,19.23
2017-04-06T07:46:40.698Z,19.23
2017-04-06T07:47:06.321Z,19.2
2017-04-06T07:47:31.888Z,19.2
2017-04-06T07:47:57.517Z,19.25
2017-04-06T07:48:23.098Z,19.29
2017-04-06T07:48:48.667Z,19.23
2017-04-06T07:49:14.229Z,19.17
2017-04-06T07:49:39.799Z,19.24
2017-04-06T07:50:05.369Z,19.24
2017-04-06T07:50:30.938Z,19.24
2017-04-06T07:50:56.502Z,19.28
2017-04-06T07:51:22.091Z,19.23
2017-04-06T07:51:47.700Z,19.29
2017-04-06T07:52:13.300Z,19.28
2017-04-06T07:52:38.922Z,19.21
2017-04-06T07:53:04.476Z,19.25
2017-04-06T07:53:30.121Z,19.25
2017-04-06T07:53:55.678Z,19.23
2017-04-06T07:54:21.306Z,19.2
2017-04-06T07:54:47.024Z,19.2
2017-04-06T07:55:12.712Z,19.24
2017-04-06T07:55:38.475Z,19.18
2017-04-06T07:56:04.048Z,19.2
2017-04-06T07:56:29.625Z,19.2
2017-04-06T07:56:55.181Z,19.24
2017-04-06T07:57:20.740Z,19.13
2017-04-06T07:57:46.405Z,19.28
2017-04-06T07:58:12.128Z,19.21
2017-04-06T07:58:37.717Z,19.17
2017-04-06T07:59:41.373Z,19.21
2017-04-06T08:00:07.060Z,19.2
2017-04-06T08:00:32.603Z,19.13
2017-04-06T08:00:58.280Z,19.2
2017-04-06T08:01:23.841Z,19.18
2017-04-06T08:01:49.433Z,19.15
2017-04-06T08:02:15.095Z,19.13
2017-04-06T08:02:40.655Z,19.11
2017-04-06T08:03:06.278Z,19.21
2017-04-06T08:03:31.852Z,19.17
2017-04-06T08:03:57.421Z,19.2
2017-04-06T08:04:22.990Z,19.25
2017-04-06T08:04:48.559Z,19.18
2017-04-06T08:05:14.180Z,19.28
2017-04-06T08:05:39.750Z,19.13
2017-04-06T08:06:05.425Z,19.2
2017-04-06T08:06:30.982Z,19.13
2017-04-06T08:06:56.670Z,19.23
2017-04-06T08:07:22.891Z,19.15
2017-04-06T08:07:48.569Z,19.17
2017-04-06T08:08:14.152Z,19.24
2017-04-06T08:08:39.719Z,19.23
2017-04-06T08:09:05.397Z,19.11
2017-04-06T08:09:31.004Z,19.14
2017-04-06T08:09:56.668Z,19.23
2017-04-06T08:10:22.282Z,19.21
2017-04-06T08:10:47.840Z,19.23
2017-04-06T08:11:13.419Z,19.21
2017-04-06T08:11:38.970Z,19.17
2017-04-06T08:12:04.605Z,19.23
2017-04-06T08:12:30.219Z,19.2
2017-04-06T08:12:55.766Z,19.18
2017-04-06T08:13:21.434Z,19.18
2017-04-06T08:13:46.998Z,19.17
2017-04-06T08:14:12.604Z,19.23
2017-04-06T08:14:38.249Z,19.23
2017-04-06T08:15:03.747Z,19.2
2017-04-06T08:15:29.377Z,19.17
2017-04-06T08:15:54.927Z,19.28
2017-04-06T08:16:20.556Z,19.2
2017-04-06T08:17:08.819Z,19.2
2017-04-06T08:17:34.482Z,19.23
2017-04-06T08:18:00.053Z,19.23
2017-04-06T08:18:25.745Z,19.23
2017-04-06T08:18:51.398Z,19.21
2017-04-06T08:19:28.734Z,19.2
2017-04-06T08:19:54.381Z,19.2
2017-04-06T08:20:19.958Z,19.25
2017-04-06T08:20:45.628Z,19.17
2017-04-06T08:21:11.173Z,19.18
2017-04-06T08:21:36.751Z,19.23
2017-04-06T08:22:02.303Z,19.23
2017-04-06T08:22:28.051Z,19.17
2017-04-06T08:22:53.635Z,19.21
2017-04-06T08:23:19.189Z,19.2
2017-04-06T08:23:44.871Z,19.18
2017-04-06T08:24:10.456Z,19.14
2017-04-06T08:24:36.018Z,19.17
2017-04-06T08:25:01.683Z,19.2
2017-04-06T08:25:27.248Z,19.13
2017-04-06T08:25:52.811Z,19.18
2017-04-06T08:26:18.479Z,19.11
2017-04-06T08:26:44.100Z,19.18
2017-04-06T08:27:09.753Z,19.17
2017-04-06T08:27:35.329Z,19.24
2017-04-06T08:28:01.013Z,19.24
2017-04-06T08:28:26.640Z,19.17
2017-04-06T08:28:52.210Z,19.1
2017-04-06T08:29:24.928Z,19.17
2017-04-06T08:29:50.512Z,19.15
2017-04-06T08:30:16.063Z,19.25
2017-04-06T08:30:41.690Z,19.25
2017-04-06T08:31:07.259Z,19.25
2017-04-06T08:31:33.596Z,19.24
2017-04-06T08:31:59.167Z,19.23
2017-04-06T08:32:24.752Z,19.25
2017-04-06T08:32:50.313Z,19.2
2017-04-06T08:33:15.883Z,19.18
2017-04-06T08:33:41.531Z,19.21
2017-04-06T08:34:07.103Z,19.21
2017-04-06T08:34:32.682Z,19.11
2017-04-06T08:34:58.225Z,19.2
2017-04-06T08:35:23.821Z,19.17
2017-04-06T08:35:49.369Z,19.2
2017-04-06T08:36:14.943Z,19.15
2017-04-06T08:36:40.491Z,19.18
2017-04-06T08:37:06.039Z,19.24
2017-04-06T08:37:31.728Z,19.25
2017-04-06T08:37:57.289Z,19.18
2017-04-06T08:38:22.988Z,19.21
2017-04-06T08:38:48.545Z,19.11
2017-04-06T08:39:14.156Z,19.23
2017-04-06T08:39:39.823Z,19.2
2017-04-06T08:40:05.411Z,19.21
2017-04-06T08:40:31.065Z,19.18
2017-04-06T08:40:56.777Z,19.14
2017-04-06T08:41:22.342Z,19.13
2017-04-06T08:41:47.945Z,19.21
2017-04-06T08:42:13.517Z,19.18
2017-04-06T08:42:39.198Z,19.24
2017-04-06T08:43:04.880Z,19.15
2017-04-06T08:43:30.449Z,19.11
2017-04-06T08:43:56.035Z,19.18
2017-04-06T08:44:21.593Z,19.14
2017-04-06T08:44:47.183Z,19.23
2017-04-06T08:45:12.769Z,19.17
2017-04-06T08:45:38.344Z,19.1
2017-04-06T08:46:03.973Z,19.2
2017-04-06T08:46:29.565Z,19.15
2017-04-06T08:46:55.210Z,19.15
2017-04-06T08:47:20.767Z,19.15
2017-04-06T08:47:46.342Z,19.18
2017-04-06T08:48:11.935Z,19.17
2017-04-06T08:48:37.545Z,19.14
2017-04-06T08:49:03.200Z,19.2
2017-04-06T08:49:28.880Z,19.21